createdAt,value
2022-12-08T00:05:05.635Z,100.00
2022-12-08T00:10:46.749Z,100.00
2022-12-08T00:15:38.957Z,100.00
2022-12-08T00:20:43.874Z,100.00
2022-12-08T00:25:52.076Z,100.00
2022-12-08T00:30:57.001Z,100.00
2022-12-08T00:36:02.079Z,100.00
2022-12-08T00:41:12.540Z,100.00
2022-12-08T00:46:17.657Z,100.00
2022-12-08T00:51:22.639Z,100.00
2022-12-08T00:56:31.089Z,100.00
2022-12-08T01:01:39.587Z,100.00
2022-12-08T01:06:44.972Z,100.00
2022-12-08T01:11:53.576Z,100.00
2022-12-08T01:17:00.907Z,100.00
2022-12-08T01:22:07.326Z,100.00
2022-12-08T01:27:18.339Z,100.00
2022-12-08T01:32:24.462Z,100.00
2022-12-08T01:37:29.496Z,100.00
2022-12-08T01:42:38.465Z,100.00
2022-12-08T01:47:46.824Z,100.00
2022-12-08T01:52:54.607Z,100.00
2022-12-08T01:58:06.195Z,100.00
2022-12-08T02:03:19.368Z,100.00
2022-12-08T02:08:26.107Z,100.00
2022-12-08T02:13:35.264Z,100.00
2022-12-08T02:19:29.107Z,100.00
2022-12-08T02:24:33.042Z,100.00
2022-12-08T02:30:00.690Z,100.00
2022-12-08T02:35:14.943Z,100.00
2022-12-08T02:40:26.598Z,100.00
2022-12-08T02:45:36.950Z,100.00
2022-12-08T02:50:45.255Z,100.00
2022-12-08T02:56:00.261Z,100.00
2022-12-08T03:01:22.059Z,100.00
2022-12-08T03:06:35.430Z,100.00
2022-12-08T03:11:46.165Z,100.00
2022-12-08T03:16:57.284Z,100.00
2022-12-08T03:22:07.744Z,100.00
2022-12-08T03:27:15.256Z,100.00
2022-12-08T03:32:26.760Z,100.00
2022-12-08T03:37:34.505Z,100.00
2022-12-08T03:42:39.491Z,100.00
2022-12-08T03:47:44.451Z,100.00
2022-12-08T03:52:52.395Z,100.00
2022-12-08T03:57:57.346Z,100.00
2022-12-08T04:03:04.867Z,100.00
2022-12-08T04:08:12.611Z,100.00
2022-12-08T04:13:17.632Z,100.00
2022-12-08T04:18:23.127Z,100.00
2022-12-08T04:23:30.646Z,100.00
2022-12-08T04:28:35.564Z,100.00
2022-12-08T04:33:40.810Z,100.00
2022-12-08T04:38:48.497Z,100.00
2022-12-08T04:43:53.453Z,100.00
2022-12-08T04:48:58.421Z,100.00
2022-12-08T04:54:06.118Z,100.00
2022-12-08T04:59:11.052Z,100.00
2022-12-08T05:04:15.992Z,100.00
2022-12-08T05:09:23.462Z,100.00
2022-12-08T05:14:28.448Z,100.00
2022-12-08T05:19:33.383Z,100.00
2022-12-08T05:24:47.023Z,100.00
2022-12-08T05:29:52.533Z,100.00
2022-12-08T05:34:58.705Z,100.00
2022-12-08T05:40:07.158Z,100.00
2022-12-08T05:45:15.821Z,100.00
2022-12-08T05:50:20.924Z,100.00
2022-12-08T05:55:29.740Z,100.00
2022-12-08T06:00:35.426Z,100.00
2022-12-08T06:05:41.390Z,100.00
2022-12-08T06:10:49.317Z,100.00
2022-12-08T06:15:54.313Z,100.00
2022-12-08T06:21:05.443Z,100.00
2022-12-08T06:26:18.170Z,100.00
2022-12-08T06:31:26.876Z,100.00
2022-12-08T06:36:32.751Z,100.00
2022-12-08T06:42:01.969Z,100.00
2022-12-08T06:47:09.296Z,100.00
2022-12-08T06:52:15.705Z,100.00
2022-12-08T06:57:28.189Z,100.00
2022-12-08T07:02:33.704Z,100.00
2022-12-08T07:07:39.975Z,100.00
2022-12-08T07:12:48.769Z,100.00
2022-12-08T07:17:59.606Z,100.00
2022-12-08T07:23:05.328Z,100.00
2022-12-08T07:28:16.471Z,100.00
2022-12-08T07:33:24.042Z,100.00
2022-12-08T07:38:30.309Z,100.00
2022-12-08T07:43:38.314Z,100.00
2022-12-08T07:48:44.730Z,100.00
2022-12-08T07:53:54.657Z,100.00
2022-12-08T07:59:04.286Z,100.00
2022-12-08T08:04:09.521Z,100.00
2022-12-08T08:09:26.054Z,100.00
2022-12-08T08:14:33.694Z,100.00
2022-12-08T08:19:41.479Z,100.00
2022-12-08T08:24:46.842Z,100.00
2022-12-08T08:29:57.451Z,100.00
2022-12-08T08:35:03.817Z,100.00
2022-12-08T08:40:13.393Z,100.00
2022-12-08T08:45:23.301Z,100.00
2022-12-08T08:50:32.931Z,100.00
2022-12-08T08:55:46.574Z,100.00
2022-12-08T09:00:55.040Z,100.00
2022-12-08T09:06:00.704Z,100.00
2022-12-08T09:11:07.385Z,100.00
2022-12-08T09:16:15.537Z,100.00
2022-12-08T09:21:23.161Z,100.00
2022-12-08T09:26:31.730Z,100.00
2022-12-08T09:31:41.988Z,100.00
2022-12-08T09:36:48.561Z,100.00
2022-12-08T09:42:00.765Z,100.00
2022-12-08T09:47:18.964Z,100.00
2022-12-08T09:52:29.994Z,100.00
2022-12-08T09:57:35.825Z,100.00
2022-12-08T10:02:43.647Z,100.00
2022-12-08T10:07:59.360Z,100.00
2022-12-08T10:13:14.421Z,100.00
2022-12-08T10:18:26.473Z,100.00
2022-12-08T10:23:35.150Z,100.00
2022-12-08T10:28:45.353Z,100.00
2022-12-08T10:34:00.803Z,100.00
2022-12-08T10:39:05.862Z,100.00
2022-12-08T10:44:13.072Z,100.00
2022-12-08T10:49:32.323Z,100.00
2022-12-08T10:54:38.840Z,100.00
2022-12-08T10:59:45.736Z,100.00
2022-12-08T11:05:01.189Z,100.00
2022-12-08T11:10:07.088Z,100.00
2022-12-08T11:15:19.360Z,100.00
2022-12-08T11:20:27.265Z,100.00
2022-12-08T11:25:32.273Z,99.38
2022-12-08T11:30:45.032Z,95.92
2022-12-08T11:35:57.350Z,94.50
2022-12-08T11:41:10.963Z,92.47
2022-12-08T11:46:26.008Z,94.83
2022-12-08T11:51:39.856Z,92.94
2022-12-08T11:56:49.100Z,93.47
2022-12-08T12:01:54.579Z,93.79
2022-12-08T12:07:40.533Z,94.17
2022-12-08T12:18:33.273Z,93.27
2022-12-08T12:23:42.445Z,94.74
2022-12-08T12:28:54.899Z,93.97
2022-12-08T12:34:09.212Z,94.10
2022-12-08T12:39:18.438Z,92.99
2022-12-08T12:44:45.998Z,88.91
2022-12-08T12:49:55.810Z,87.69
2022-12-08T12:55:27.163Z,86.12
2022-12-08T13:00:34.761Z,86.09
2022-12-08T13:05:52.450Z,87.33
2022-12-08T13:11:03.652Z,88.74
2022-12-08T13:16:21.749Z,89.34
2022-12-08T13:21:34.753Z,90.94
2022-12-08T13:26:47.271Z,90.60
2022-12-08T13:31:59.619Z,91.90
2022-12-08T13:37:24.703Z,92.90
2022-12-08T13:42:38.396Z,93.95
2022-12-08T13:48:21.708Z,93.28
2022-12-08T13:54:42.608Z,92.76
2022-12-08T13:58:44.957Z,92.31
2022-12-08T14:09:25.023Z,93.20
2022-12-08T14:15:01.117Z,93.35
2022-12-08T14:20:02.087Z,93.62
2022-12-08T14:25:10.220Z,95.12
2022-12-08T14:30:22.728Z,95.18
2022-12-08T14:35:32.993Z,96.35
2022-12-08T14:40:40.324Z,95.41
2022-12-08T14:45:53.858Z,95.90
2022-12-08T14:51:18.501Z,96.13
2022-12-08T14:56:29.882Z,96.25
2022-12-08T15:01:35.228Z,96.05
2022-12-08T15:06:49.512Z,96.44
2022-12-08T15:12:03.506Z,96.01
2022-12-08T15:17:31.780Z,96.25
2022-12-08T15:22:39.317Z,97.22
2022-12-08T15:27:50.437Z,97.34
2022-12-08T15:32:57.454Z,97.50
2022-12-08T15:38:04.982Z,96.77
2022-12-08T15:43:13.157Z,96.94
2022-12-08T15:48:24.510Z,96.55
2022-12-08T15:53:33.167Z,96.71
2022-12-08T15:58:57.714Z,96.47
2022-12-08T16:09:35.177Z,96.21
2022-12-08T16:20:08.323Z,96.67
2022-12-08T16:25:19.424Z,96.19
2022-12-08T16:30:25.418Z,96.27
2022-12-08T16:35:33.491Z,96.49
2022-12-08T16:41:02.531Z,96.07
2022-12-08T16:46:07.957Z,96.81
2022-12-08T16:51:26.524Z,96.55
2022-12-08T16:56:34.792Z,96.61
2022-12-08T17:01:42.175Z,96.76
2022-12-08T17:06:47.406Z,96.14
2022-12-08T17:12:00.271Z,96.35
2022-12-08T17:17:08.825Z,96.14
2022-12-08T17:22:14.160Z,96.50
2022-12-08T17:27:21.698Z,96.65
2022-12-08T17:32:27.352Z,96.84
2022-12-08T17:37:35.759Z,96.79
2022-12-08T17:42:46.201Z,96.88
2022-12-08T17:47:51.157Z,96.79
2022-12-08T17:52:56.178Z,97.37
2022-12-08T17:58:06.412Z,97.42
2022-12-08T18:03:11.529Z,97.30
2022-12-08T18:08:16.898Z,97.15
2022-12-08T18:13:24.667Z,97.14
2022-12-08T18:18:29.617Z,97.03
2022-12-08T18:23:34.735Z,97.92
2022-12-08T18:28:42.683Z,97.24
2022-12-08T18:33:52.436Z,97.42
2022-12-08T18:38:57.800Z,97.56
2022-12-08T18:44:05.301Z,97.96
2022-12-08T18:49:13.873Z,97.72
2022-12-08T18:54:22.126Z,97.77
2022-12-08T18:59:35.692Z,98.23
2022-12-08T19:04:42.484Z,98.03
2022-12-08T19:09:47.567Z,98.37
2022-12-08T19:14:56.863Z,99.69
2022-12-08T19:20:03.401Z,98.78
2022-12-08T19:25:09.043Z,98.25
2022-12-08T19:30:17.714Z,98.10
2022-12-08T19:35:22.824Z,98.41
2022-12-08T19:40:40.310Z,97.58
2022-12-08T19:45:49.064Z,97.83
2022-12-08T19:50:54.361Z,97.79
2022-12-08T19:55:59.518Z,97.90
2022-12-08T20:01:08.565Z,97.55
2022-12-08T20:06:16.525Z,98.65
2022-12-08T20:11:22.951Z,98.91
2022-12-08T20:16:33.147Z,99.12
2022-12-08T20:21:43.052Z,100.00
2022-12-08T20:26:48.122Z,100.00
2022-12-08T20:31:55.761Z,100.00
2022-12-08T20:37:13.703Z,100.00
2022-12-08T20:42:20.180Z,100.00
2022-12-08T20:47:28.011Z,100.00
2022-12-08T20:52:33.180Z,100.00
2022-12-08T20:57:40.742Z,100.00
2022-12-08T21:02:56.280Z,100.00
2022-12-08T21:08:02.011Z,100.00
2022-12-08T21:13:08.423Z,100.00
2022-12-08T21:18:16.340Z,100.00
2022-12-08T21:23:21.461Z,100.00
2022-12-08T21:28:26.728Z,100.00
2022-12-08T21:33:34.520Z,100.00
2022-12-08T21:38:41.189Z,100.00
2022-12-08T21:43:46.299Z,100.00
2022-12-08T21:48:53.900Z,100.00
2022-12-08T21:53:59.025Z,100.00
2022-12-08T21:59:04.218Z,100.00
2022-12-08T22:04:12.583Z,100.00
2022-12-08T22:09:18.444Z,100.00
2022-12-08T22:14:25.664Z,100.00
2022-12-08T22:19:33.696Z,100.00
2022-12-08T22:24:38.750Z,100.00
2022-12-08T22:29:43.819Z,100.00
2022-12-08T22:34:52.681Z,100.00
2022-12-08T22:39:57.774Z,100.00
2022-12-08T22:45:05.600Z,100.00
2022-12-08T22:50:14.932Z,100.00
2022-12-08T22:55:20.716Z,100.00
2022-12-08T23:00:25.708Z,100.00
2022-12-08T23:05:35.457Z,100.00
2022-12-08T23:10:43.562Z,100.00
2022-12-08T23:15:48.802Z,100.00
2022-12-08T23:20:56.680Z,100.00
2022-12-08T23:26:01.894Z,100.00
2022-12-08T23:31:10.527Z,100.00
2022-12-08T23:36:19.950Z,100.00
2022-12-08T23:41:25.041Z,100.00
2022-12-08T23:46:31.127Z,100.00
2022-12-08T23:51:41.440Z,100.00
2022-12-08T23:56:46.770Z,100.00
